sensor_id;sensor_type;location;lat;lon;timestamp;temperature;humidity
7998;DHT22;4044;49.814;7.828;2023-01-06T00:00:20;12.80;99.90
7998;DHT22;4044;49.814;7.828;2023-01-06T00:02:46;12.80;99.90
7998;DHT22;4044;49.814;7.828;2023-01-06T00:05:12;12.80;99.90
7998;DHT22;4044;49.814;7.828;2023-01-06T00:07:38;12.80;99.90
7998;DHT22;4044;49.814;7.828;2023-01-06T00:10:04;12.90;99.90
7998;DHT22;4044;49.814;7.828;2023-01-06T00:12:30;13.00;99.90
7998;DHT22;4044;49.814;7.828;2023-01-06T00:14:56;13.00;99.90
7998;DHT22;4044;49.814;7.828;2023-01-06T00:17:21;13.00;99.90
7998;DHT22;4044;49.814;7.828;2023-01-06T00:19:47;13.00;99.90
7998;DHT22;4044;49.814;7.828;2023-01-06T00:22:12;12.90;99.90
7998;DHT22;4044;49.814;7.828;2023-01-06T00:24:38;12.70;99.90
7998;DHT22;4044;49.814;7.828;2023-01-06T00:27:03;12.60;99.90
7998;DHT22;4044;49.814;7.828;2023-01-06T00:29:29;12.60;99.90
7998;DHT22;4044;49.814;7.828;2023-01-06T00:31:57;12.70;99.90
7998;DHT22;4044;49.814;7.828;2023-01-06T00:34:22;12.70;99.90
7998;DHT22;4044;49.814;7.828;2023-01-06T00:36:48;12.80;99.90
7998;DHT22;4044;49.814;7.828;2023-01-06T00:39:13;12.90;99.90
7998;DHT22;4044;49.814;7.828;2023-01-06T00:41:39;12.90;99.90
7998;DHT22;4044;49.814;7.828;2023-01-06T00:44:24;12.90;99.90
7998;DHT22;4044;49.814;7.828;2023-01-06T00:46:49;13.00;99.90
7998;DHT22;4044;49.814;7.828;2023-01-06T00:49:15;13.00;99.90
7998;DHT22;4044;49.814;7.828;2023-01-06T00:51:40;13.00;99.90
7998;DHT22;4044;49.814;7.828;2023-01-06T00:54:07;13.00;99.90
7998;DHT22;4044;49.814;7.828;2023-01-06T00:56:44;13.00;99.90
7998;DHT22;4044;49.814;7.828;2023-01-06T00:59:12;13.00;99.90
7998;DHT22;4044;49.814;7.828;2023-01-06T01:01:39;13.10;99.90
7998;DHT22;4044;49.814;7.828;2023-01-06T01:04:06;13.00;99.90
7998;DHT22;4044;49.814;7.828;2023-01-06T01:06:31;13.00;99.90
7998;DHT22;4044;49.814;7.828;2023-01-06T01:08:58;13.00;99.90
7998;DHT22;4044;49.814;7.828;2023-01-06T01:11:24;13.10;99.90
7998;DHT22;4044;49.814;7.828;2023-01-06T01:14:09;13.00;99.90
7998;DHT22;4044;49.814;7.828;2023-01-06T01:16:35;13.00;99.90
7998;DHT22;4044;49.814;7.828;2023-01-06T01:19:01;13.00;99.90
7998;DHT22;4044;49.814;7.828;2023-01-06T01:21:26;13.00;99.90
7998;DHT22;4044;49.814;7.828;2023-01-06T01:23:52;13.00;99.90
7998;DHT22;4044;49.814;7.828;2023-01-06T01:26:18;12.90;99.90
7998;DHT22;4044;49.814;7.828;2023-01-06T01:28:43;12.90;99.90
7998;DHT22;4044;49.814;7.828;2023-01-06T01:31:09;12.90;99.90
7998;DHT22;4044;49.814;7.828;2023-01-06T01:33:36;12.80;99.90
7998;DHT22;4044;49.814;7.828;2023-01-06T01:36:09;12.80;99.90
7998;DHT22;4044;49.814;7.828;2023-01-06T01:38:35;12.60;99.90
7998;DHT22;4044;49.814;7.828;2023-01-06T01:41:01;12.40;99.90
7998;DHT22;4044;49.814;7.828;2023-01-06T01:43:57;12.20;99.90
7998;DHT22;4044;49.814;7.828;2023-01-06T01:46:27;11.90;99.90
7998;DHT22;4044;49.814;7.828;2023-01-06T01:48:57;11.80;99.90
7998;DHT22;4044;49.814;7.828;2023-01-06T01:51:29;11.70;99.90
7998;DHT22;4044;49.814;7.828;2023-01-06T01:53:59;11.80;99.90
7998;DHT22;4044;49.814;7.828;2023-01-06T01:56:29;11.70;99.90
7998;DHT22;4044;49.814;7.828;2023-01-06T02:01:27;11.60;99.90
7998;DHT22;4044;49.814;7.828;2023-01-06T02:03:53;11.70;99.90
7998;DHT22;4044;49.814;7.828;2023-01-06T02:06:21;11.70;99.90
7998;DHT22;4044;49.814;7.828;2023-01-06T02:11:22;11.80;99.90
7998;DHT22;4044;49.814;7.828;2023-01-06T02:13:52;11.80;99.90
7998;DHT22;4044;49.814;7.828;2023-01-06T02:16:39;11.80;99.90
7998;DHT22;4044;49.814;7.828;2023-01-06T02:19:35;11.80;99.90
7998;DHT22;4044;49.814;7.828;2023-01-06T02:22:15;11.70;99.90
7998;DHT22;4044;49.814;7.828;2023-01-06T02:33:23;11.30;99.90
7998;DHT22;4044;49.814;7.828;2023-01-06T02:39:09;11.20;99.90
7998;DHT22;4044;49.814;7.828;2023-01-06T02:41:45;11.10;99.90
7998;DHT22;4044;49.814;7.828;2023-01-06T02:44:32;11.00;99.90
7998;DHT22;4044;49.814;7.828;2023-01-06T02:49:40;10.90;99.90
7998;DHT22;4044;49.814;7.828;2023-01-06T02:52:22;11.00;99.90
7998;DHT22;4044;49.814;7.828;2023-01-06T03:02:31;11.30;99.90
7998;DHT22;4044;49.814;7.828;2023-01-06T03:04:59;11.40;99.90
7998;DHT22;4044;49.814;7.828;2023-01-06T03:07:26;11.40;99.90
7998;DHT22;4044;49.814;7.828;2023-01-06T03:09:53;11.40;99.90
7998;DHT22;4044;49.814;7.828;2023-01-06T03:12:44;11.40;99.90
7998;DHT22;4044;49.814;7.828;2023-01-06T03:15:12;11.40;99.90
7998;DHT22;4044;49.814;7.828;2023-01-06T03:17:38;11.40;99.90
7998;DHT22;4044;49.814;7.828;2023-01-06T03:20:04;11.40;99.90
7998;DHT22;4044;49.814;7.828;2023-01-06T03:22:30;11.40;99.90
7998;DHT22;4044;49.814;7.828;2023-01-06T03:24:56;11.40;99.90
7998;DHT22;4044;49.814;7.828;2023-01-06T03:27:24;11.30;99.90
7998;DHT22;4044;49.814;7.828;2023-01-06T03:29:51;11.30;99.90
7998;DHT22;4044;49.814;7.828;2023-01-06T03:32:30;11.30;99.90
7998;DHT22;4044;49.814;7.828;2023-01-06T03:35:10;11.30;99.90
7998;DHT22;4044;49.814;7.828;2023-01-06T03:43:04;11.40;99.90
7998;DHT22;4044;49.814;7.828;2023-01-06T03:51:42;11.50;99.90
7998;DHT22;4044;49.814;7.828;2023-01-06T03:54:19;11.50;99.90
7998;DHT22;4044;49.814;7.828;2023-01-06T03:57:07;11.40;99.90
7998;DHT22;4044;49.814;7.828;2023-01-06T03:59:38;11.30;99.90
7998;DHT22;4044;49.814;7.828;2023-01-06T04:02:05;11.30;99.90
7998;DHT22;4044;49.814;7.828;2023-01-06T04:04:31;11.30;99.90
7998;DHT22;4044;49.814;7.828;2023-01-06T04:06:57;11.30;99.90
7998;DHT22;4044;49.814;7.828;2023-01-06T04:09:22;11.20;99.90
7998;DHT22;4044;49.814;7.828;2023-01-06T04:11:48;11.20;99.90
7998;DHT22;4044;49.814;7.828;2023-01-06T04:14:32;11.20;99.90
7998;DHT22;4044;49.814;7.828;2023-01-06T04:16:58;11.10;99.90
7998;DHT22;4044;49.814;7.828;2023-01-06T04:19:23;11.10;99.90
7998;DHT22;4044;49.814;7.828;2023-01-06T04:21:49;11.10;99.90
7998;DHT22;4044;49.814;7.828;2023-01-06T04:24:14;11.20;99.90
7998;DHT22;4044;49.814;7.828;2023-01-06T04:26:40;11.20;99.90
7998;DHT22;4044;49.814;7.828;2023-01-06T04:29:05;11.20;99.90
7998;DHT22;4044;49.814;7.828;2023-01-06T04:31:31;11.00;99.90
7998;DHT22;4044;49.814;7.828;2023-01-06T04:33:56;11.00;99.90
7998;DHT22;4044;49.814;7.828;2023-01-06T04:36:22;11.00;99.90
7998;DHT22;4044;49.814;7.828;2023-01-06T04:38:47;11.00;99.90
7998;DHT22;4044;49.814;7.828;2023-01-06T04:41:13;11.00;99.90
7998;DHT22;4044;49.814;7.828;2023-01-06T04:43:38;11.10;99.90
7998;DHT22;4044;49.814;7.828;2023-01-06T04:46:04;11.00;99.90
7998;DHT22;4044;49.814;7.828;2023-01-06T04:48:29;11.10;99.90
7998;DHT22;4044;49.814;7.828;2023-01-06T04:51:03;11.10;99.90
7998;DHT22;4044;49.814;7.828;2023-01-06T04:53:28;11.20;99.90
7998;DHT22;4044;49.814;7.828;2023-01-06T04:55:54;11.20;99.90
7998;DHT22;4044;49.814;7.828;2023-01-06T04:58:19;11.30;99.90
7998;DHT22;4044;49.814;7.828;2023-01-06T05:00:45;11.20;99.90
7998;DHT22;4044;49.814;7.828;2023-01-06T05:03:11;11.20;99.90
7998;DHT22;4044;49.814;7.828;2023-01-06T05:05:37;11.20;99.90
7998;DHT22;4044;49.814;7.828;2023-01-06T05:08:03;11.20;99.90
7998;DHT22;4044;49.814;7.828;2023-01-06T05:10:28;11.20;99.90
7998;DHT22;4044;49.814;7.828;2023-01-06T05:12:54;11.00;99.90
7998;DHT22;4044;49.814;7.828;2023-01-06T05:15:19;10.90;99.90
7998;DHT22;4044;49.814;7.828;2023-01-06T05:17:45;10.90;99.90
7998;DHT22;4044;49.814;7.828;2023-01-06T05:20:10;10.80;99.90
7998;DHT22;4044;49.814;7.828;2023-01-06T05:22:36;10.90;99.90
7998;DHT22;4044;49.814;7.828;2023-01-06T05:25:01;10.80;99.90
7998;DHT22;4044;49.814;7.828;2023-01-06T05:27:27;10.70;99.90
7998;DHT22;4044;49.814;7.828;2023-01-06T05:29:52;10.70;99.90
7998;DHT22;4044;49.814;7.828;2023-01-06T05:32:18;10.70;99.90
7998;DHT22;4044;49.814;7.828;2023-01-06T05:34:43;10.60;99.90
7998;DHT22;4044;49.814;7.828;2023-01-06T05:37:09;10.50;99.90
7998;DHT22;4044;49.814;7.828;2023-01-06T05:39:34;10.40;99.90
7998;DHT22;4044;49.814;7.828;2023-01-06T05:42:00;10.30;99.90
7998;DHT22;4044;49.814;7.828;2023-01-06T05:44:25;10.40;99.90
7998;DHT22;4044;49.814;7.828;2023-01-06T05:46:51;10.50;99.90
7998;DHT22;4044;49.814;7.828;2023-01-06T05:49:16;10.50;99.90
7998;DHT22;4044;49.814;7.828;2023-01-06T05:51:42;10.60;99.90
7998;DHT22;4044;49.814;7.828;2023-01-06T05:54:08;10.50;99.90
7998;DHT22;4044;49.814;7.828;2023-01-06T05:56:34;10.50;99.90
7998;DHT22;4044;49.814;7.828;2023-01-06T05:58:59;10.50;99.90
7998;DHT22;4044;49.814;7.828;2023-01-06T06:01:28;10.50;99.90
7998;DHT22;4044;49.814;7.828;2023-01-06T06:03:55;10.50;99.90
7998;DHT22;4044;49.814;7.828;2023-01-06T06:06:23;10.50;99.90
7998;DHT22;4044;49.814;7.828;2023-01-06T06:08:49;10.40;99.90
7998;DHT22;4044;49.814;7.828;2023-01-06T06:11:16;10.30;99.90
7998;DHT22;4044;49.814;7.828;2023-01-06T06:13:49;10.30;99.90
7998;DHT22;4044;49.814;7.828;2023-01-06T06:16:17;10.20;99.90
7998;DHT22;4044;49.814;7.828;2023-01-06T06:18:43;10.20;99.90
7998;DHT22;4044;49.814;7.828;2023-01-06T06:21:14;10.30;99.90
7998;DHT22;4044;49.814;7.828;2023-01-06T06:23:41;10.30;99.90
7998;DHT22;4044;49.814;7.828;2023-01-06T06:26:07;10.40;99.90
7998;DHT22;4044;49.814;7.828;2023-01-06T06:28:34;10.40;99.90
7998;DHT22;4044;49.814;7.828;2023-01-06T06:31:24;10.40;99.90
7998;DHT22;4044;49.814;7.828;2023-01-06T06:33:55;10.60;99.90
7998;DHT22;4044;49.814;7.828;2023-01-06T06:36:21;10.60;99.90
7998;DHT22;4044;49.814;7.828;2023-01-06T06:38:49;10.70;99.90
7998;DHT22;4044;49.814;7.828;2023-01-06T06:41:16;10.70;99.90
7998;DHT22;4044;49.814;7.828;2023-01-06T06:43:41;10.80;99.90
7998;DHT22;4044;49.814;7.828;2023-01-06T06:46:07;10.80;99.90
7998;DHT22;4044;49.814;7.828;2023-01-06T06:48:34;10.80;99.90
7998;DHT22;4044;49.814;7.828;2023-01-06T06:51:04;10.90;99.90
7998;DHT22;4044;49.814;7.828;2023-01-06T06:53:31;10.90;99.90
7998;DHT22;4044;49.814;7.828;2023-01-06T06:55:57;10.90;99.90
7998;DHT22;4044;49.814;7.828;2023-01-06T06:58:23;11.00;99.90
7998;DHT22;4044;49.814;7.828;2023-01-06T07:00:49;10.90;99.90
7998;DHT22;4044;49.814;7.828;2023-01-06T07:03:14;10.90;99.90
7998;DHT22;4044;49.814;7.828;2023-01-06T07:05:44;10.90;99.90
7998;DHT22;4044;49.814;7.828;2023-01-06T07:08:13;11.00;99.90
7998;DHT22;4044;49.814;7.828;2023-01-06T07:10:39;11.10;99.90
7998;DHT22;4044;49.814;7.828;2023-01-06T07:13:05;11.10;99.90
7998;DHT22;4044;49.814;7.828;2023-01-06T07:15:30;11.10;99.90
7998;DHT22;4044;49.814;7.828;2023-01-06T07:18:00;11.00;99.90
7998;DHT22;4044;49.814;7.828;2023-01-06T07:20:27;11.10;99.90
7998;DHT22;4044;49.814;7.828;2023-01-06T07:22:52;11.10;99.90
7998;DHT22;4044;49.814;7.828;2023-01-06T07:25:18;11.10;99.90
7998;DHT22;4044;49.814;7.828;2023-01-06T07:27:43;11.10;99.90
7998;DHT22;4044;49.814;7.828;2023-01-06T07:30:09;11.20;99.90
7998;DHT22;4044;49.814;7.828;2023-01-06T07:32:35;11.10;99.90
7998;DHT22;4044;49.814;7.828;2023-01-06T07:35:00;11.10;99.90
7998;DHT22;4044;49.814;7.828;2023-01-06T07:37:26;11.00;99.90
7998;DHT22;4044;49.814;7.828;2023-01-06T07:39:51;11.10;99.90
7998;DHT22;4044;49.814;7.828;2023-01-06T07:42:17;11.10;99.90
7998;DHT22;4044;49.814;7.828;2023-01-06T07:44:42;11.10;99.90
7998;DHT22;4044;49.814;7.828;2023-01-06T07:47:08;11.00;99.90
7998;DHT22;4044;49.814;7.828;2023-01-06T07:49:34;11.10;99.90
7998;DHT22;4044;49.814;7.828;2023-01-06T07:52:00;11.20;99.90
7998;DHT22;4044;49.814;7.828;2023-01-06T07:54:26;11.20;99.90
7998;DHT22;4044;49.814;7.828;2023-01-06T07:56:51;11.20;99.90
7998;DHT22;4044;49.814;7.828;2023-01-06T07:59:17;11.20;99.90
7998;DHT22;4044;49.814;7.828;2023-01-06T08:01:42;11.20;99.90
7998;DHT22;4044;49.814;7.828;2023-01-06T08:04:08;11.20;99.90
7998;DHT22;4044;49.814;7.828;2023-01-06T08:06:33;11.30;99.90
7998;DHT22;4044;49.814;7.828;2023-01-06T08:09:00;11.30;99.90
7998;DHT22;4044;49.814;7.828;2023-01-06T08:11:26;11.20;99.90
7998;DHT22;4044;49.814;7.828;2023-01-06T08:13:51;11.20;99.90
7998;DHT22;4044;49.814;7.828;2023-01-06T08:16:17;11.10;99.90
7998;DHT22;4044;49.814;7.828;2023-01-06T08:18:42;11.20;99.90
7998;DHT22;4044;49.814;7.828;2023-01-06T08:21:09;11.20;99.90
7998;DHT22;4044;49.814;7.828;2023-01-06T08:23:37;11.20;99.90
7998;DHT22;4044;49.814;7.828;2023-01-06T08:26:14;11.20;99.90
7998;DHT22;4044;49.814;7.828;2023-01-06T08:28:41;11.10;99.90
7998;DHT22;4044;49.814;7.828;2023-01-06T08:31:11;11.00;99.90
7998;DHT22;4044;49.814;7.828;2023-01-06T08:33:37;10.90;99.90
7998;DHT22;4044;49.814;7.828;2023-01-06T08:36:06;11.00;99.90
7998;DHT22;4044;49.814;7.828;2023-01-06T08:38:33;11.00;99.90
7998;DHT22;4044;49.814;7.828;2023-01-06T08:41:00;11.10;99.90
7998;DHT22;4044;49.814;7.828;2023-01-06T08:43:26;11.10;99.90
7998;DHT22;4044;49.814;7.828;2023-01-06T08:45:52;11.10;99.90
7998;DHT22;4044;49.814;7.828;2023-01-06T08:48:18;11.20;99.90
7998;DHT22;4044;49.814;7.828;2023-01-06T08:50:44;11.30;99.90
7998;DHT22;4044;49.814;7.828;2023-01-06T08:53:11;11.30;99.90
7998;DHT22;4044;49.814;7.828;2023-01-06T08:55:38;11.30;99.90
7998;DHT22;4044;49.814;7.828;2023-01-06T08:58:04;11.30;99.90
7998;DHT22;4044;49.814;7.828;2023-01-06T09:00:29;11.10;99.90
7998;DHT22;4044;49.814;7.828;2023-01-06T09:02:55;11.00;99.90
7998;DHT22;4044;49.814;7.828;2023-01-06T09:05:20;10.90;99.90
7998;DHT22;4044;49.814;7.828;2023-01-06T09:07:46;11.00;99.90
7998;DHT22;4044;49.814;7.828;2023-01-06T09:10:11;11.20;99.90
7998;DHT22;4044;49.814;7.828;2023-01-06T09:12:37;11.30;99.90
7998;DHT22;4044;49.814;7.828;2023-01-06T09:15:04;11.50;99.90
7998;DHT22;4044;49.814;7.828;2023-01-06T09:17:30;11.60;99.90
7998;DHT22;4044;49.814;7.828;2023-01-06T09:19:55;11.60;99.90
7998;DHT22;4044;49.814;7.828;2023-01-06T09:22:21;11.70;99.90
7998;DHT22;4044;49.814;7.828;2023-01-06T09:24:46;11.70;99.90
7998;DHT22;4044;49.814;7.828;2023-01-06T09:27:12;11.70;99.90
7998;DHT22;4044;49.814;7.828;2023-01-06T09:29:37;11.60;99.90
7998;DHT22;4044;49.814;7.828;2023-01-06T09:32:03;11.70;99.90
7998;DHT22;4044;49.814;7.828;2023-01-06T09:34:28;11.70;99.90
7998;DHT22;4044;49.814;7.828;2023-01-06T09:36:54;11.80;99.90
7998;DHT22;4044;49.814;7.828;2023-01-06T09:39:19;11.70;99.90
7998;DHT22;4044;49.814;7.828;2023-01-06T09:42:15;11.80;99.90
7998;DHT22;4044;49.814;7.828;2023-01-06T09:44:54;12.00;99.90
7998;DHT22;4044;49.814;7.828;2023-01-06T09:47:25;12.00;99.90
7998;DHT22;4044;49.814;7.828;2023-01-06T09:50:12;12.00;99.90
7998;DHT22;4044;49.814;7.828;2023-01-06T09:52:51;12.10;99.90
7998;DHT22;4044;49.814;7.828;2023-01-06T09:55:32;12.00;99.90
7998;DHT22;4044;49.814;7.828;2023-01-06T09:58:22;12.10;99.90
7998;DHT22;4044;49.814;7.828;2023-01-06T10:00:51;12.30;99.90
7998;DHT22;4044;49.814;7.828;2023-01-06T10:03:23;12.40;99.90
7998;DHT22;4044;49.814;7.828;2023-01-06T10:06:23;12.30;99.90
7998;DHT22;4044;49.814;7.828;2023-01-06T10:14:28;12.30;99.90
7998;DHT22;4044;49.814;7.828;2023-01-06T10:20:12;12.30;99.90
7998;DHT22;4044;49.814;7.828;2023-01-06T10:23:11;12.30;99.90
7998;DHT22;4044;49.814;7.828;2023-01-06T10:25:49;12.50;99.90
7998;DHT22;4044;49.814;7.828;2023-01-06T10:28:26;12.40;99.90
7998;DHT22;4044;49.814;7.828;2023-01-06T10:31:00;12.30;99.90
7998;DHT22;4044;49.814;7.828;2023-01-06T10:33:30;12.30;99.90
7998;DHT22;4044;49.814;7.828;2023-01-06T10:35:58;12.30;99.90
7998;DHT22;4044;49.814;7.828;2023-01-06T10:38:33;12.30;99.90
7998;DHT22;4044;49.814;7.828;2023-01-06T10:43:53;12.20;99.90
7998;DHT22;4044;49.814;7.828;2023-01-06T10:46:19;12.20;99.90
7998;DHT22;4044;49.814;7.828;2023-01-06T10:48:45;12.30;99.90
7998;DHT22;4044;49.814;7.828;2023-01-06T10:51:32;12.40;99.90
7998;DHT22;4044;49.814;7.828;2023-01-06T10:54:02;12.50;99.90
7998;DHT22;4044;49.814;7.828;2023-01-06T10:56:31;12.50;99.90
7998;DHT22;4044;49.814;7.828;2023-01-06T10:59:00;12.50;99.90
7998;DHT22;4044;49.814;7.828;2023-01-06T11:01:29;12.50;99.90
7998;DHT22;4044;49.814;7.828;2023-01-06T11:04:09;12.60;99.90
7998;DHT22;4044;49.814;7.828;2023-01-06T11:06:43;12.70;99.90
7998;DHT22;4044;49.814;7.828;2023-01-06T11:09:31;12.70;99.90
7998;DHT22;4044;49.814;7.828;2023-01-06T11:12:00;12.80;99.90
7998;DHT22;4044;49.814;7.828;2023-01-06T11:14:31;12.70;99.90
7998;DHT22;4044;49.814;7.828;2023-01-06T11:17:07;12.70;99.90
7998;DHT22;4044;49.814;7.828;2023-01-06T11:19:37;12.70;99.90
7998;DHT22;4044;49.814;7.828;2023-01-06T11:22:04;12.80;99.90
7998;DHT22;4044;49.814;7.828;2023-01-06T11:24:49;13.00;99.90
7998;DHT22;4044;49.814;7.828;2023-01-06T11:27:16;13.00;99.90
7998;DHT22;4044;49.814;7.828;2023-01-06T11:29:41;13.10;99.90
7998;DHT22;4044;49.814;7.828;2023-01-06T11:32:23;13.10;99.90
7998;DHT22;4044;49.814;7.828;2023-01-06T11:37:41;13.00;99.90
7998;DHT22;4044;49.814;7.828;2023-01-06T11:40:32;12.80;99.90
7998;DHT22;4044;49.814;7.828;2023-01-06T11:43:08;12.70;99.90
7998;DHT22;4044;49.814;7.828;2023-01-06T11:45:37;12.50;99.90
7998;DHT22;4044;49.814;7.828;2023-01-06T11:48:16;12.40;99.90
7998;DHT22;4044;49.814;7.828;2023-01-06T11:50:55;12.40;99.90
7998;DHT22;4044;49.814;7.828;2023-01-06T11:53:22;12.40;99.90
7998;DHT22;4044;49.814;7.828;2023-01-06T11:58:37;12.50;99.90
7998;DHT22;4044;49.814;7.828;2023-01-06T12:01:37;12.50;99.90
7998;DHT22;4044;49.814;7.828;2023-01-06T12:06:48;12.50;99.90
7998;DHT22;4044;49.814;7.828;2023-01-06T12:09:29;12.30;99.90
7998;DHT22;4044;49.814;7.828;2023-01-06T12:11:58;12.30;99.90
7998;DHT22;4044;49.814;7.828;2023-01-06T12:14:29;12.50;99.90
7998;DHT22;4044;49.814;7.828;2023-01-06T12:17:30;12.40;99.90
7998;DHT22;4044;49.814;7.828;2023-01-06T12:20:18;12.40;99.90
7998;DHT22;4044;49.814;7.828;2023-01-06T12:22:56;12.40;99.90
7998;DHT22;4044;49.814;7.828;2023-01-06T12:25:45;12.40;99.90
7998;DHT22;4044;49.814;7.828;2023-01-06T12:31:00;12.30;99.90
7998;DHT22;4044;49.814;7.828;2023-01-06T12:33:33;12.30;99.90
7998;DHT22;4044;49.814;7.828;2023-01-06T12:36:02;12.30;99.90
7998;DHT22;4044;49.814;7.828;2023-01-06T12:38:56;12.30;99.90
7998;DHT22;4044;49.814;7.828;2023-01-06T12:43:58;12.20;99.90
7998;DHT22;4044;49.814;7.828;2023-01-06T12:46:29;12.10;99.90
7998;DHT22;4044;49.814;7.828;2023-01-06T12:49:00;12.00;99.90
7998;DHT22;4044;49.814;7.828;2023-01-06T12:51:37;12.00;99.90
7998;DHT22;4044;49.814;7.828;2023-01-06T12:54:14;12.00;99.90
7998;DHT22;4044;49.814;7.828;2023-01-06T12:56:46;12.10;99.90
7998;DHT22;4044;49.814;7.828;2023-01-06T13:02:17;12.30;99.90
7998;DHT22;4044;49.814;7.828;2023-01-06T13:07:46;12.60;99.90
7998;DHT22;4044;49.814;7.828;2023-01-06T13:14:02;12.90;99.90
7998;DHT22;4044;49.814;7.828;2023-01-06T13:16:45;12.70;99.90
7998;DHT22;4044;49.814;7.828;2023-01-06T13:19:45;12.70;99.90
7998;DHT22;4044;49.814;7.828;2023-01-06T13:22:20;12.80;99.90
7998;DHT22;4044;49.814;7.828;2023-01-06T13:30:59;13.20;99.90
7998;DHT22;4044;49.814;7.828;2023-01-06T13:36:22;13.30;99.90
7998;DHT22;4044;49.814;7.828;2023-01-06T13:38:59;13.30;99.90
7998;DHT22;4044;49.814;7.828;2023-01-06T13:41:36;13.20;99.90
7998;DHT22;4044;49.814;7.828;2023-01-06T13:44:04;13.20;99.90
7998;DHT22;4044;49.814;7.828;2023-01-06T13:46:31;13.20;99.90
7998;DHT22;4044;49.814;7.828;2023-01-06T13:49:02;13.70;99.90
7998;DHT22;4044;49.814;7.828;2023-01-06T13:51:35;14.40;99.90
7998;DHT22;4044;49.814;7.828;2023-01-06T13:54:02;14.70;99.90
7998;DHT22;4044;49.814;7.828;2023-01-06T13:56:30;14.80;99.90
7998;DHT22;4044;49.814;7.828;2023-01-06T13:59:19;14.70;99.90
7998;DHT22;4044;49.814;7.828;2023-01-06T14:01:45;14.40;99.90
7998;DHT22;4044;49.814;7.828;2023-01-06T14:07:06;13.90;99.90
7998;DHT22;4044;49.814;7.828;2023-01-06T14:09:36;13.60;99.90
7998;DHT22;4044;49.814;7.828;2023-01-06T14:12:13;13.30;99.90
7998;DHT22;4044;49.814;7.828;2023-01-06T14:14:41;13.30;99.90
7998;DHT22;4044;49.814;7.828;2023-01-06T14:17:29;13.10;99.90
7998;DHT22;4044;49.814;7.828;2023-01-06T14:19:56;13.00;99.90
7998;DHT22;4044;49.814;7.828;2023-01-06T14:22:24;12.90;99.90
7998;DHT22;4044;49.814;7.828;2023-01-06T14:24:54;12.90;99.90
7998;DHT22;4044;49.814;7.828;2023-01-06T14:30:34;13.00;99.90
7998;DHT22;4044;49.814;7.828;2023-01-06T14:35:41;12.50;99.90
7998;DHT22;4044;49.814;7.828;2023-01-06T14:38:40;12.40;99.90
7998;DHT22;4044;49.814;7.828;2023-01-06T14:41:28;12.20;99.90
7998;DHT22;4044;49.814;7.828;2023-01-06T14:43:55;12.10;99.90
7998;DHT22;4044;49.814;7.828;2023-01-06T14:46:40;12.10;99.90
7998;DHT22;4044;49.814;7.828;2023-01-06T14:49:15;12.00;99.90
7998;DHT22;4044;49.814;7.828;2023-01-06T14:51:43;12.00;99.90
7998;DHT22;4044;49.814;7.828;2023-01-06T14:54:28;12.00;99.90
7998;DHT22;4044;49.814;7.828;2023-01-06T14:56:59;12.00;99.90
7998;DHT22;4044;49.814;7.828;2023-01-06T14:59:26;12.00;99.90
7998;DHT22;4044;49.814;7.828;2023-01-06T15:02:14;12.10;99.90
7998;DHT22;4044;49.814;7.828;2023-01-06T15:04:41;12.10;99.90
7998;DHT22;4044;49.814;7.828;2023-01-06T15:07:19;12.10;99.90
7998;DHT22;4044;49.814;7.828;2023-01-06T15:09:46;12.00;99.90
7998;DHT22;4044;49.814;7.828;2023-01-06T15:12:28;11.80;99.90
7998;DHT22;4044;49.814;7.828;2023-01-06T15:14:54;11.70;99.90
7998;DHT22;4044;49.814;7.828;2023-01-06T15:17:20;11.60;99.90
7998;DHT22;4044;49.814;7.828;2023-01-06T15:19:46;11.60;99.90
7998;DHT22;4044;49.814;7.828;2023-01-06T15:22:18;11.60;99.90
7998;DHT22;4044;49.814;7.828;2023-01-06T15:24:45;11.80;99.90
7998;DHT22;4044;49.814;7.828;2023-01-06T15:27:13;11.80;99.90
7998;DHT22;4044;49.814;7.828;2023-01-06T15:29:48;11.80;99.90
7998;DHT22;4044;49.814;7.828;2023-01-06T15:32:14;11.80;99.90
7998;DHT22;4044;49.814;7.828;2023-01-06T15:34:41;11.90;99.90
7998;DHT22;4044;49.814;7.828;2023-01-06T15:37:16;11.90;99.90
7998;DHT22;4044;49.814;7.828;2023-01-06T15:39:43;11.80;99.90
7998;DHT22;4044;49.814;7.828;2023-01-06T15:42:10;11.70;99.90
7998;DHT22;4044;49.814;7.828;2023-01-06T15:44:38;11.70;99.90
7998;DHT22;4044;49.814;7.828;2023-01-06T15:47:57;11.70;99.90
7998;DHT22;4044;49.814;7.828;2023-01-06T15:50:06;11.70;99.90
7998;DHT22;4044;49.814;7.828;2023-01-06T15:52:42;11.60;99.90
7998;DHT22;4044;49.814;7.828;2023-01-06T15:55:20;11.60;99.90
7998;DHT22;4044;49.814;7.828;2023-01-06T15:57:53;11.60;99.90
7998;DHT22;4044;49.814;7.828;2023-01-06T16:00:26;11.60;99.90
7998;DHT22;4044;49.814;7.828;2023-01-06T16:02:52;11.60;99.90
7998;DHT22;4044;49.814;7.828;2023-01-06T16:05:39;11.50;99.90
7998;DHT22;4044;49.814;7.828;2023-01-06T16:08:25;11.50;99.90
7998;DHT22;4044;49.814;7.828;2023-01-06T16:18:39;11.20;99.90
7998;DHT22;4044;49.814;7.828;2023-01-06T16:21:14;11.00;99.90
7998;DHT22;4044;49.814;7.828;2023-01-06T16:23:40;10.90;99.90
7998;DHT22;4044;49.814;7.828;2023-01-06T16:26:20;10.90;99.90
7998;DHT22;4044;49.814;7.828;2023-01-06T16:28:52;10.80;99.90
7998;DHT22;4044;49.814;7.828;2023-01-06T16:31:31;10.90;99.90
7998;DHT22;4044;49.814;7.828;2023-01-06T16:34:27;11.00;99.90
7998;DHT22;4044;49.814;7.828;2023-01-06T16:36:56;11.10;99.90
7998;DHT22;4044;49.814;7.828;2023-01-06T16:39:23;11.10;99.90
7998;DHT22;4044;49.814;7.828;2023-01-06T16:44:23;11.30;99.90
7998;DHT22;4044;49.814;7.828;2023-01-06T16:46:49;11.30;99.90
7998;DHT22;4044;49.814;7.828;2023-01-06T16:49:15;11.40;99.90
7998;DHT22;4044;49.814;7.828;2023-01-06T16:51:42;11.40;99.90
7998;DHT22;4044;49.814;7.828;2023-01-06T16:54:09;11.40;99.90
7998;DHT22;4044;49.814;7.828;2023-01-06T16:56:36;11.30;99.90
7998;DHT22;4044;49.814;7.828;2023-01-06T16:59:12;11.30;99.90
7998;DHT22;4044;49.814;7.828;2023-01-06T17:01:38;11.30;99.90
7998;DHT22;4044;49.814;7.828;2023-01-06T17:04:04;11.20;99.90
7998;DHT22;4044;49.814;7.828;2023-01-06T17:06:33;11.10;99.90
7998;DHT22;4044;49.814;7.828;2023-01-06T17:09:02;11.00;99.90
7998;DHT22;4044;49.814;7.828;2023-01-06T17:11:34;10.80;99.90
7998;DHT22;4044;49.814;7.828;2023-01-06T17:14:04;10.80;99.90
7998;DHT22;4044;49.814;7.828;2023-01-06T17:16:35;10.80;99.90
7998;DHT22;4044;49.814;7.828;2023-01-06T17:19:20;10.70;99.90
7998;DHT22;4044;49.814;7.828;2023-01-06T17:21:48;10.70;99.90
7998;DHT22;4044;49.814;7.828;2023-01-06T17:24:19;10.70;99.90
7998;DHT22;4044;49.814;7.828;2023-01-06T17:27:01;10.70;99.90
7998;DHT22;4044;49.814;7.828;2023-01-06T17:29:35;10.70;99.90
7998;DHT22;4044;49.814;7.828;2023-01-06T17:32:03;10.60;99.90
7998;DHT22;4044;49.814;7.828;2023-01-06T17:34:35;10.60;99.90
7998;DHT22;4044;49.814;7.828;2023-01-06T17:37:09;10.60;99.90
7998;DHT22;4044;49.814;7.828;2023-01-06T17:39:38;10.50;99.90
7998;DHT22;4044;49.814;7.828;2023-01-06T17:44:38;10.40;99.90
7998;DHT22;4044;49.814;7.828;2023-01-06T17:47:28;10.50;99.90
7998;DHT22;4044;49.814;7.828;2023-01-06T17:49:58;10.50;99.90
7998;DHT22;4044;49.814;7.828;2023-01-06T17:52:31;10.60;99.90
7998;DHT22;4044;49.814;7.828;2023-01-06T17:57:50;10.90;99.90
7998;DHT22;4044;49.814;7.828;2023-01-06T18:00:28;11.00;99.90
7998;DHT22;4044;49.814;7.828;2023-01-06T18:03:01;11.00;99.90
7998;DHT22;4044;49.814;7.828;2023-01-06T18:10:30;11.20;99.90
7998;DHT22;4044;49.814;7.828;2023-01-06T18:12:56;11.30;99.90
7998;DHT22;4044;49.814;7.828;2023-01-06T18:17:50;11.40;99.90